Lähimpiä lentokenttien sääasemia

 

EFHK - Helsinki/Vantaa, Finland
Ilmasuunta ja etäisyys Sääasema Bassenraitista: KO 24km
Päivitetty: 17/06/2021 05:50
Osittain pilvistä
Osittain pilvistä
 Tuulen suunta LLO
Tuuli: LLO 9 km/h
Lämpötila: 13°C
Kastepiste: 12°C
Kosteus: 94%
Ilmanpaine: 1021 hPa
Pilvet: Osittain pilvistä
Näkyvyys: 10 km
Pilvitiedot: Osittain pilvistä 61 m
2021/06/17 02:50 EFHK 170250Z 24005KT 9999 FEW002 13/12 Q1021 NOSIG
EETN - Tallinn, Estonia
Ilmasuunta ja etäisyys Sääasema Bassenraitista: E 89km
Päivitetty: 17/06/2021 05:50
Selkeätä
Selkeätä
 Tuulen suunta varies
Tuuli: varies 4 km/h
Lämpötila: 12°C
Kastepiste: 10°C
Kosteus: 88%
Ilmanpaine: 1022 hPa
Yhteenveto: Selkeätä
Näkyvyys: enemmän kuin 10 km
2021/06/17 02:50 EETN 170250Z VRB02KT CAVOK 12/10 Q1022
 
EFTU - Turku/Abo, Finland
Ilmasuunta ja etäisyys Sääasema Bassenraitista: LLU 133km
Päivitetty: 17/06/2021 05:50
Selkeätä
Selkeätä
 Tuulen suunta E
Tuuli: E 7 km/h
Lämpötila: 13°C
Kastepiste: 11°C
Kosteus: 88%
Ilmanpaine: 1020 hPa
Yhteenveto: Selkeätä
Näkyvyys: enemmän kuin 10 km
2021/06/17 02:50 EFTU 170250Z AUTO 17004KT 140V200 CAVOK 13/11 Q1020
EFTP - Tampere/Pirkkala, Finland
Ilmasuunta ja etäisyys Sääasema Bassenraitista: PLU 146km
Päivitetty: 17/06/2021 05:50
Selkeätä
Selkeätä
 Tuulen suunta EKA
Tuuli: EKA 6 km/h
Yhteenveto: Selkeätä
Näkyvyys: enemmän kuin 10 km
2021/06/17 02:50 EFTP 170250Z AUTO 16003KT 120V200 CAVOK 12/0
 
EFUT - Utti (fin-Afb), Finland
Ilmasuunta ja etäisyys Sääasema Bassenraitista: IKO 148km
Päivitetty: 17/06/2021 05:20
Selkeätä
Selkeätä
 Tuulen suunta LLO
Tuuli: LLO 9 km/h
Lämpötila: 12°C
Kastepiste: 7°C
Kosteus: 72%
Ilmanpaine: 1020 hPa
Yhteenveto: Selkeätä
Näkyvyys: enemmän kuin 10 km
2021/06/17 02:20 EFUT 170220Z AUTO 24005KT CAVOK 12/07 Q1020
EEKA - Kardla, Estonia
Ilmasuunta ja etäisyys Sääasema Bassenraitista: LO 168km
Päivitetty: 16/06/2021 18:20
NOT Current
Selkeätä
Selkeätä
 Tuulen suunta LO
Tuuli: LO 15 km/h
Lämpötila: 21°C
Kastepiste: 6°C
Kosteus: 38%
Ilmanpaine: 1018 hPa
Yhteenveto: Selkeätä
Näkyvyys: enemmän kuin 10 km
2021/06/16 15:20 EEKA 161520Z 22008KT 170V270 CAVOK 21/06 Q1018
 
EFHA - Halli (fin-Afb), Finland
Ilmasuunta ja etäisyys Sääasema Bassenraitista: P 184km
Päivitetty: 17/06/2021 05:20
Selkeätä
Selkeätä
 Tuulen suunta E
Tuuli: E 6 km/h
Lämpötila: 12°C
Kastepiste: 8°C
Kosteus: 77%
Ilmanpaine: 1019 hPa
Yhteenveto: Selkeätä
Näkyvyys: enemmän kuin 10 km
2021/06/17 02:20 EFHA 170220Z AUTO 19003KT 170V230 CAVOK 12/08 Q1019
EEPU - Parnu, Estonia
Ilmasuunta ja etäisyys Sääasema Bassenraitista: E 198km
Päivitetty: 30/11/2020 16:20
NOT Current
Light snow, Mist, Vaihetelvaa
Light snow, Mist, Vaihetelvaa
 Tuulen suunta varies
Tuuli: varies 4 km/h
Lämpötila: 0°C
Kastepiste: 0°C
Kosteus: 100%
Ilmanpaine: 1015 hPa
Yhteenveto: Light snow, Mist
Pilvet: Vaihetelvaa
Näkyvyys: 4 km
Pilvitiedot: Enimmäkseen pilvistä 274 m
Vaihetelvaa 427 m
2020/11/30 14:20 EEPU 301420Z VRB02KT 3600 -SN BR BKN009 OVC014 M00/M00 Q1015
 
EFPO - Pori (mil/Civ), Finland
Ilmasuunta ja etäisyys Sääasema Bassenraitista: LU 207km
Päivitetty: 17/06/2021 05:20
Selkeätä
Selkeätä
 Tuulen suunta E
Tuuli: E 11 km/h
Lämpötila: 12°C
Kastepiste: 10°C
Kosteus: 88%
Ilmanpaine: 1018 hPa
Yhteenveto: Selkeätä
Näkyvyys: enemmän kuin 10 km
2021/06/17 02:20 EFPO 170220Z AUTO 17006KT CAVOK 12/10 Q1018
EFLP - Lappeenranta, Finland
Ilmasuunta ja etäisyys Sääasema Bassenraitista: IKO 215km
Päivitetty: 17/06/2021 05:20
Selkeätä
Selkeätä
 Tuulen suunta LLO
Tuuli: LLO 9 km/h
Lämpötila: 13°C
Kastepiste: 7°C
Kosteus: 67%
Ilmanpaine: 1019 hPa
Yhteenveto: Selkeätä
Näkyvyys: enemmän kuin 10 km
2021/06/17 02:20 EFLP 170220Z AUTO 25005KT CAVOK 13/07 Q1019
 
EFMI - Mikkeli, Finland
Ilmasuunta ja etäisyys Sääasema Bassenraitista: KO 217km
Päivitetty: 17/06/2021 05:20
Selkeätä
Selkeätä
 Tuulen suunta L
Tuuli: L 7 km/h
Lämpötila: 12°C
Kastepiste: 10°C
Kosteus: 88%
Ilmanpaine: 1019 hPa
Yhteenveto: Selkeätä
Näkyvyys: enemmän kuin 10 km
2021/06/17 02:20 EFMI 170220Z AUTO 26004KT CAVOK 12/10 Q1019
EETU - Tartu, Estonia
Ilmasuunta ja etäisyys Sääasema Bassenraitista: EKA 240km
Päivitetty: 17/06/2021 05:20
Selkeätä
Selkeätä
 Tuulen suunta L
Tuuli: L 4 km/h
Lämpötila: 10°C
Kastepiste: 7°C
Kosteus: 82%
Ilmanpaine: 1022 hPa
Pilvet: Selkeätä
Näkyvyys: 10 km
2021/06/17 02:20 EETU 170220Z AUTO 26002KT 9999 NCD 10/07 Q1022
 
EEKE - Kuressaare, Estonia
Ilmasuunta ja etäisyys Sääasema Bassenraitista: ELO 249km
Päivitetty: 17/06/2021 05:20
Puolipilvistä
Puolipilvistä
 Tuulen suunta ELO
Tuuli: ELO 9 km/h
Lämpötila: 14°C
Kastepiste: 11°C
Kosteus: 82%
Ilmanpaine: 1022 hPa
Pilvet: Puolipilvistä
Näkyvyys: 10 km
2021/06/17 02:20 EEKE 170220Z AUTO 21005KT 180V240 9999NDV NSC 14/11 Q1022
EFJY - Jyvaskyla (mil/C, Finland
Ilmasuunta ja etäisyys Sääasema Bassenraitista: PKO 252km
Päivitetty: 17/06/2021 05:20
Osittain pilvistä
Osittain pilvistä
 Tuulen suunta varies
Tuuli: varies 2 km/h
Lämpötila: 11°C
Kastepiste: 9°C
Kosteus: 88%
Ilmanpaine: 1019 hPa
Pilvet: Osittain pilvistä
Näkyvyys: 10 km
Pilvitiedot: Osittain pilvistä 1494 m
2021/06/17 02:20 EFJY 170220Z AUTO VRB01KT 9999 FEW049 11/09 Q1019
 
EFMA - Mariehamn/Aland, Finland
Ilmasuunta ja etäisyys Sääasema Bassenraitista: L 261km
Päivitetty: 17/06/2021 05:50
Selkeätä
Selkeätä
 Tuulen suunta E
Tuuli: E 11 km/h
Lämpötila: 13°C
Kastepiste: 12°C
Kosteus: 94%
Ilmanpaine: 1019 hPa
Yhteenveto: Selkeätä
Näkyvyys: enemmän kuin 10 km
2021/06/17 02:50 EFMA 170250Z AUTO 19006KT CAVOK 13/12 Q1019
EFSI - Seinajoki-Ilmajo, Finland
Ilmasuunta ja etäisyys Sääasema Bassenraitista: PLU 294km
Päivitetty: 17/06/2021 05:20
Selkeätä
Selkeätä
 Tuulen suunta IKA
Tuuli: IKA 7 km/h
Lämpötila: 9°C
Hyytävyys: 8°C
Kastepiste: 6°C
Kosteus: 82%
Ilmanpaine: 1018 hPa
Yhteenveto: Selkeätä
Näkyvyys: enemmän kuin 10 km
2021/06/17 02:20 EFSI 170220Z AUTO 12004KT CAVOK 09/06 Q1018